Terminal Aerodrome Forecast
Issued by NWS Sioux Falls, SD

Home | Current Version | Previous Version | Text Only | Print | Product List | Glossary On
Versions: 1 2 3 4 5 6 7 8 9 10 11 12 13 14 15 16
000
FTUS43 KFSD 202320
TAFHON
TAF
KHON 202320Z 2100/2124 17012G18KT P6SM SKC
     FM210200 16011KT P6SM SCT250
     FM211100 14005KT P6SM BKN200
     FM211500 10009KT P6SM SCT120
     FM212100 09012KT P6SM SCT060=

USA.gov is the U.S. government's official web portal to all federal, state and local government web resources and services.